KAMN/AMN METAR and TAF weather

Enter ICAO airport designator
Station Type Date Time Source
KAMN METAR 2019/04/25 01:56 UTC NOAA

KAMN 250156Z AUTO 19003KT 10SM CLR 11/01 A2990 RMK AO2 T01080008


Station Type Date Time Source
KAMN Decoded METAR 2019/04/25 01:56 UTC NOAA

Alma, Gratiot Community Airport, MI, United States (KAMN) 43-19-19N 084-41-16W
Apr 24, 2019 - 09:56 PM EDT / 2019.04.25 0156 UTC
Wind: from the S (190 degrees) at 3 MPH (3 KT):0
Visibility: 10 mile(s):0
Sky conditions: clear
Temperature: 51.4 F (10.8 C)
Dew Point: 33.4 F (0.8 C)
Relative Humidity: 49%
Pressure (altimeter): 29.9 in. Hg (1012 hPa)
ob: KAMN 250156Z AUTO 19003KT 10SM CLR 11/01 A2990 RMK AO2 T01080008
cycle: 2

Station Type Date Time Source
KAMN TAF UTC NOAA

Error!

Example: see airport list